NCAR-RAP Real-Time Weather Data

Output produced by METARs form (20 January 2020  09:16 UTC)
found at http://weather.rap.ucar.edu/surface/
 
RJTT 200900Z 17005KT 140V210 CAVOK 11/02 Q1011 NOSIG RMK A2986
 
RJAA 200900Z 17002KT 9999 FEW030 07/01 Q1011 NOSIG RMK 1CU030 A2987
 
RJAF 200700Z 19014KT 9999 VCSH FEW040 SCT060 08/M05 Q1010
 
RJAH 200900Z 10002KT 9999 FEW040 09/M01 Q1010
 
RJGG 200900Z 35011KT 9999 FEW030 BKN050 10/02 Q1015 NOSIG
 
RJNK 200900Z 28013KT 9999 -SHRA FEW015 BKN025 BKN050 08/04 Q1016
 
RJNT 200900Z 18007KT 110V210 9999 -SHRA FEW010 FEW020TCU SCT035 BKN060 07/03 Q1015
 
RJNW 200900Z 23005KT 9999 FEW020 SCT025 BKN030 04/03 Q1013
 
RJTF 200700Z 15003KT 090V200 9999 FEW030 12/M02 Q1010
 
 
 
 
RJTF 200700Z 15003KT 090V200 9999 FEW030 12/M02 Q1010
 
RJTI 200700Z 16003KT 9999 FEW030 12/01 Q1011
 
 
 
RJTO 200700Z 24011G21KT 190V280 9999 FEW030 13/04 Q1010
 
 
RJTT 200900Z 17005KT 140V210 CAVOK 11/02 Q1011 NOSIG RMK A2986
 
 
RJTY 200856Z AUTO 26005KT 10SM CLR 09/00 A2990 RMK AO2 SLP134 T00891002 50005 FZRANO $